Time;durP1;ratioP1;P1;durP2;ratioP2;P2;SDS_P1;SDS_P2;PMS_P1;PMS_P2;Temp;Humidity;BMP_temperature;BMP_pressure;BME280_temperature;BME280_humidity;BME280_pressure;Samples;Min_cycle;Max_cycle;Signal;HPM_P1;HPM_P2
2023/11/12 00:02:07;;;;;;;35.07;22.60;;;;;;;;;;5127493;27;20441;-66
2023/11/12 00:04:34;;;;;;;30.43;19.60;;;;;;;;;;5120110;27;20479;-66
2023/11/12 00:07:00;;;;;;;25.93;19.97;;;;;;;;;;5115358;27;20455;-67
2023/11/12 00:09:27;;;;;;;27.00;18.80;;;;;;;;;;5132206;27;20454;-67
2023/11/12 00:11:55;;;;;;;31.60;20.20;;;;;;;;;;5116999;27;20457;-67
2023/11/12 00:14:22;;;;;;;30.03;20.90;;;;;;;;;;5123649;27;20445;-67
2023/11/12 00:16:48;;;;;;;27.37;19.70;;;;;;;;;;5108851;27;20487;-67
2023/11/12 00:19:18;;;;;;;36.60;19.40;;;;;;;;;;5116458;28;20485;-67
2023/11/12 00:21:45;;;;;;;29.80;19.90;;;;;;;;;;5112976;27;20516;-67
2023/11/12 00:24:12;;;;;;;28.17;18.90;;;;;;;;;;5111037;27;20458;-67
2023/11/12 00:26:38;;;;;;;33.63;19.93;;;;;;;;;;5116738;27;20455;-66
2023/11/12 00:29:06;;;;;;;25.77;18.57;;;;;;;;;;5128426;27;20445;-67
2023/11/12 00:31:33;;;;;;;24.40;16.60;;;;;;;;;;5116826;27;21255;-67
2023/11/12 00:33:59;;;;;;;27.73;17.13;;;;;;;;;;5122337;27;20478;-68
2023/11/12 00:36:25;;;;;;;27.07;18.10;;;;;;;;;;5133226;27;20474;-66
2023/11/12 00:38:52;;;;;;;23.07;16.90;;;;;;;;;;5127826;27;20473;-66
2023/11/12 00:41:19;;;;;;;23.77;16.90;;;;;;;;;;5116356;27;20495;-67
2023/11/12 00:43:46;;;;;;;26.53;17.23;;;;;;;;;;5118674;27;20442;-67
2023/11/12 00:46:13;;;;;;;25.73;18.00;;;;;;;;;;5123395;27;20456;-67
2023/11/12 00:48:40;;;;;;;32.03;19.70;;;;;;;;;;5127200;27;20522;-66
2023/11/12 00:51:06;;;;;;;25.10;17.60;;;;;;;;;;5113879;27;20496;-67
2023/11/12 00:53:32;;;;;;;25.03;17.93;;;;;;;;;;5127893;27;20449;-66
2023/11/12 00:55:59;;;;;;;24.63;17.73;;;;;;;;;;5115197;27;20576;-67
2023/11/12 00:58:25;;;;;;;28.70;17.83;;;;;;;;;;5125360;27;20457;-66
2023/11/12 01:00:54;;;;;;;24.10;17.17;;;;;;;;;;5115893;28;20490;-67
2023/11/12 01:03:22;;;;;;;25.53;17.93;;;;;;;;;;5124022;27;20452;-67
2023/11/12 01:05:49;;;;;;;31.53;18.47;;;;;;;;;;5133280;27;20479;-67
2023/11/12 01:08:16;;;;;;;26.37;18.27;;;;;;;;;;5111289;27;20485;-67
2023/11/12 01:10:42;;;;;;;29.27;19.53;;;;;;;;;;5121164;27;20486;-68
2023/11/12 01:13:09;;;;;;;27.33;17.60;;;;;;;;;;5118238;27;20484;-67
2023/11/12 01:15:35;;;;;;;29.00;17.90;;;;;;;;;;5116830;27;20521;-67
2023/11/12 01:18:02;;;;;;;26.97;18.53;;;;;;;;;;5119835;27;20459;-67
2023/11/12 01:20:30;;;;;;;26.10;16.43;;;;;;;;;;5125051;27;20460;-67
2023/11/12 01:22:56;;;;;;;23.77;17.50;;;;;;;;;;5121010;27;20461;-67
2023/11/12 01:25:23;;;;;;;23.40;16.73;;;;;;;;;;5115117;27;20442;-68
2023/11/12 01:27:49;;;;;;;22.87;16.50;;;;;;;;;;5116477;27;20490;-68
2023/11/12 01:30:17;;;;;;;26.97;17.90;;;;;;;;;;5118248;27;20491;-67
2023/11/12 01:32:43;;;;;;;26.50;16.73;;;;;;;;;;5117407;27;20490;-68
2023/11/12 01:35:10;;;;;;;27.17;17.00;;;;;;;;;;5111220;27;20927;-68
2023/11/12 01:37:37;;;;;;;33.30;18.17;;;;;;;;;;5114468;27;20492;-69
2023/11/12 01:40:05;;;;;;;24.30;16.60;;;;;;;;;;5109296;27;20741;-68
2023/11/12 01:42:33;;;;;;;29.30;18.57;;;;;;;;;;5108863;27;20834;-68
2023/11/12 01:45:00;;;;;;;22.27;16.03;;;;;;;;;;5118780;27;20455;-68
2023/11/12 01:47:26;;;;;;;31.87;17.67;;;;;;;;;;5123902;27;20548;-67
2023/11/12 01:49:53;;;;;;;23.37;15.70;;;;;;;;;;5121291;27;20443;-68
2023/11/12 01:52:19;;;;;;;26.87;18.47;;;;;;;;;;5122352;27;20503;-67
2023/11/12 01:54:47;;;;;;;27.30;16.73;;;;;;;;;;5114073;27;20510;-67
2023/11/12 01:57:14;;;;;;;29.97;17.10;;;;;;;;;;5119829;27;20521;-67
2023/11/12 01:59:40;;;;;;;26.77;16.33;;;;;;;;;;5122922;27;20470;-67
2023/11/12 02:02:07;;;;;;;23.37;15.57;;;;;;;;;;5114710;27;20451;-67
2023/11/12 02:04:33;;;;;;;23.87;16.00;;;;;;;;;;5115303;27;20490;-67
2023/11/12 02:07:01;;;;;;;24.10;17.57;;;;;;;;;;5123743;27;20480;-68
2023/11/12 02:09:28;;;;;;;25.90;16.80;;;;;;;;;;5117543;27;20477;-66
2023/11/12 02:11:56;;;;;;;28.63;16.37;;;;;;;;;;5111361;28;20923;-67
2023/11/12 02:14:25;;;;;;;26.97;15.03;;;;;;;;;;5117038;27;20446;-67
2023/11/12 02:16:52;;;;;;;23.20;16.07;;;;;;;;;;5117521;27;20487;-68
2023/11/12 02:19:25;;;;;;;22.97;16.07;;;;;;;;;;5108921;27;20723;-67
2023/11/12 02:21:52;;;;;;;27.37;16.93;;;;;;;;;;5103947;27;20471;-67
2023/11/12 02:24:20;;;;;;;23.20;14.80;;;;;;;;;;5118742;27;20480;-68
2023/11/12 02:26:48;;;;;;;25.60;15.87;;;;;;;;;;5121691;27;20480;-67
2023/11/12 02:29:15;;;;;;;35.30;16.87;;;;;;;;;;5118671;27;20526;-68
2023/11/12 02:31:41;;;;;;;28.23;15.60;;;;;;;;;;5116293;27;20490;-68
2023/11/12 02:34:08;;;;;;;25.93;15.80;;;;;;;;;;5122202;28;20450;-67
2023/11/12 02:36:35;;;;;;;26.33;15.73;;;;;;;;;;5109696;28;20917;-68
2023/11/12 02:39:01;;;;;;;21.60;15.17;;;;;;;;;;5104647;28;20955;-68
2023/11/12 02:41:30;;;;;;;24.70;15.83;;;;;;;;;;5125522;28;20501;-69
2023/11/12 02:43:56;;;;;;;27.37;15.80;;;;;;;;;;5118053;28;20454;-69
2023/11/12 02:46:23;;;;;;;25.90;15.47;;;;;;;;;;5116652;28;20527;-69
2023/11/12 02:49:00;;;;;;;22.67;15.67;;;;;;;;;;5130876;28;20490;-69
2023/11/12 02:51:26;;;;;;;30.50;16.63;;;;;;;;;;5114827;28;20568;-69
2023/11/12 02:53:54;;;;;;;23.67;15.40;;;;;;;;;;5117083;28;21172;-68
2023/11/12 02:56:22;;;;;;;28.70;16.73;;;;;;;;;;5116947;28;20508;-68
2023/11/12 02:58:49;;;;;;;25.23;14.63;;;;;;;;;;5116909;28;20453;-67
2023/11/12 03:01:17;;;;;;;25.43;16.33;;;;;;;;;;5120032;28;20452;-68
2023/11/12 03:03:43;;;;;;;27.33;16.47;;;;;;;;;;5117633;28;20549;-68
2023/11/12 03:06:11;;;;;;;21.50;15.00;;;;;;;;;;5120305;27;21172;-67
2023/11/12 03:08:37;;;;;;;26.83;15.60;;;;;;;;;;5115313;27;20513;-68
2023/11/12 03:11:04;;;;;;;23.03;14.87;;;;;;;;;;5110203;27;20454;-69
2023/11/12 03:13:31;;;;;;;25.87;15.33;;;;;;;;;;5115971;27;20511;-69
2023/11/12 03:15:58;;;;;;;22.67;15.00;;;;;;;;;;5112834;27;20465;-70
2023/11/12 03:18:25;;;;;;;22.23;15.87;;;;;;;;;;5118131;27;20485;-69
2023/11/12 03:20:51;;;;;;;24.23;16.20;;;;;;;;;;5107454;27;20495;-69
2023/11/12 03:23:18;;;;;;;19.77;14.87;;;;;;;;;;5118792;27;20845;-69
2023/11/12 03:25:45;;;;;;;20.17;14.00;;;;;;;;;;5121625;27;21051;-70
2023/11/12 03:28:11;;;;;;;22.50;14.60;;;;;;;;;;5114806;27;20465;-69
2023/11/12 03:30:39;;;;;;;24.30;16.50;;;;;;;;;;5120207;27;21004;-69
2023/11/12 03:33:07;;;;;;;22.27;14.43;;;;;;;;;;5119927;27;20484;-68
2023/11/12 03:35:34;;;;;;;21.63;14.00;;;;;;;;;;5124195;27;20469;-69
2023/11/12 03:38:01;;;;;;;27.70;15.67;;;;;;;;;;5124350;27;20488;-70
2023/11/12 03:40:27;;;;;;;26.50;16.10;;;;;;;;;;5120224;27;20500;-69
2023/11/12 03:42:54;;;;;;;21.37;14.23;;;;;;;;;;5121372;27;21042;-69
2023/11/12 03:45:20;;;;;;;23.20;15.63;;;;;;;;;;5117321;27;20465;-69
2023/11/12 03:47:47;;;;;;;24.73;15.50;;;;;;;;;;5112782;27;20476;-68
2023/11/12 03:50:15;;;;;;;25.50;14.70;;;;;;;;;;5111047;27;20492;-69
2023/11/12 03:52:41;;;;;;;19.97;14.97;;;;;;;;;;5126518;27;20510;-70
2023/11/12 03:55:08;;;;;;;23.43;15.37;;;;;;;;;;5117022;27;20568;-70
2023/11/12 03:57:34;;;;;;;22.47;14.20;;;;;;;;;;5128173;27;20485;-70
2023/11/12 04:00:01;;;;;;;22.83;15.70;;;;;;;;;;5107906;28;20469;-70
2023/11/12 04:02:27;;;;;;;23.17;16.50;;;;;;;;;;5118509;27;20541;-70
2023/11/12 04:04:53;;;;;;;22.93;14.93;;;;;;;;;;5107567;27;20457;-70
2023/11/12 04:07:23;;;;;;;23.43;15.40;;;;;;;;;;5122044;27;20477;-70
2023/11/12 04:09:49;;;;;;;22.83;15.17;;;;;;;;;;5127779;27;21324;-70
2023/11/12 04:12:16;;;;;;;21.90;15.40;;;;;;;;;;5122109;27;20454;-70
2023/11/12 04:14:42;;;;;;;20.57;15.07;;;;;;;;;;5113175;27;20463;-70
2023/11/12 04:17:09;;;;;;;23.70;15.73;;;;;;;;;;5116073;27;20486;-70
2023/11/12 04:19:35;;;;;;;23.10;15.57;;;;;;;;;;5108161;27;20537;-70
2023/11/12 04:22:01;;;;;;;27.23;14.37;;;;;;;;;;5117453;27;21273;-70
2023/11/12 04:24:29;;;;;;;24.33;15.83;;;;;;;;;;5122286;27;20442;-70
2023/11/12 04:26:56;;;;;;;26.47;17.47;;;;;;;;;;5124667;27;20463;-70
2023/11/12 04:29:23;;;;;;;24.53;17.30;;;;;;;;;;5116556;27;20443;-71
2023/11/12 04:31:49;;;;;;;25.13;15.77;;;;;;;;;;5104537;27;20492;-67
2023/11/12 04:34:16;;;;;;;24.73;15.90;;;;;;;;;;5122867;27;20478;-68
2023/11/12 04:36:44;;;;;;;23.97;15.90;;;;;;;;;;5113689;27;20528;-68
2023/11/12 04:39:10;;;;;;;26.00;19.00;;;;;;;;;;5119811;27;20450;-70
2023/11/12 04:41:38;;;;;;;25.73;16.27;;;;;;;;;;5125792;27;20464;-70
2023/11/12 04:44:05;;;;;;;24.70;15.47;;;;;;;;;;5122464;27;20497;-69
2023/11/12 04:46:33;;;;;;;29.57;16.93;;;;;;;;;;5116130;27;20460;-70
2023/11/12 04:49:00;;;;;;;25.40;17.47;;;;;;;;;;5123544;27;21028;-70
2023/11/12 04:51:26;;;;;;;24.67;15.77;;;;;;;;;;5110595;27;20483;-71
2023/11/12 04:53:53;;;;;;;26.30;17.30;;;;;;;;;;5118672;27;20467;-69
2023/11/12 04:56:20;;;;;;;25.77;15.50;;;;;;;;;;5124786;27;20490;-70
2023/11/12 04:58:47;;;;;;;23.40;16.10;;;;;;;;;;5110893;27;20482;-70
2023/11/12 05:01:14;;;;;;;26.83;15.97;;;;;;;;;;5115028;27;20478;-68
2023/11/12 05:03:40;;;;;;;23.03;15.73;;;;;;;;;;5108964;27;20489;-67
2023/11/12 05:06:07;;;;;;;22.47;14.20;;;;;;;;;;5116977;27;20529;-69
2023/11/12 05:08:33;;;;;;;24.67;15.53;;;;;;;;;;5121245;27;20451;-68
2023/11/12 05:11:00;;;;;;;21.77;13.60;;;;;;;;;;5117099;27;20447;-68
2023/11/12 05:13:26;;;;;;;23.73;16.07;;;;;;;;;;5124526;27;20471;-69
2023/11/12 05:15:54;;;;;;;20.90;14.70;;;;;;;;;;5122061;27;20460;-69
2023/11/12 05:18:21;;;;;;;21.90;14.60;;;;;;;;;;5117191;27;20819;-69
2023/11/12 05:20:47;;;;;;;24.10;15.20;;;;;;;;;;5121413;27;20826;-69
2023/11/12 05:23:14;;;;;;;22.70;14.90;;;;;;;;;;5113344;27;20506;-68
2023/11/12 05:25:40;;;;;;;27.07;14.87;;;;;;;;;;5123162;27;20478;-69
2023/11/12 05:28:07;;;;;;;24.27;14.80;;;;;;;;;;5110614;28;20503;-68
2023/11/12 05:30:34;;;;;;;25.10;14.10;;;;;;;;;;5114083;27;21133;-68
2023/11/12 05:33:02;;;;;;;20.07;13.57;;;;;;;;;;5115729;27;20556;-69
2023/11/12 05:35:28;;;;;;;24.13;14.53;;;;;;;;;;5123921;27;20458;-68
2023/11/12 05:37:55;;;;;;;21.17;13.83;;;;;;;;;;5127216;27;20482;-68
2023/11/12 05:40:21;;;;;;;25.50;15.40;;;;;;;;;;5104805;27;20458;-68
2023/11/12 05:42:48;;;;;;;22.33;15.33;;;;;;;;;;5114783;27;20480;-68
2023/11/12 05:45:14;;;;;;;21.80;13.90;;;;;;;;;;5103089;27;20485;-68
2023/11/12 05:47:41;;;;;;;24.57;13.30;;;;;;;;;;5110089;27;20529;-69
2023/11/12 05:50:09;;;;;;;22.77;14.63;;;;;;;;;;5103374;27;20999;-68
2023/11/12 05:52:37;;;;;;;26.90;14.13;;;;;;;;;;5116603;27;20461;-69
2023/11/12 05:55:06;;;;;;;22.97;15.67;;;;;;;;;;5122817;27;20462;-69
2023/11/12 05:57:32;;;;;;;21.23;13.67;;;;;;;;;;5109834;27;20487;-69
2023/11/12 05:59:58;;;;;;;26.40;15.23;;;;;;;;;;5109062;27;20572;-69
2023/11/12 06:02:25;;;;;;;24.93;16.80;;;;;;;;;;5119629;27;21333;-68
2023/11/12 06:04:52;;;;;;;23.90;14.20;;;;;;;;;;5122084;27;20451;-68
2023/11/12 06:07:20;;;;;;;25.67;16.07;;;;;;;;;;5114352;27;20511;-69
2023/11/12 06:09:46;;;;;;;23.70;14.80;;;;;;;;;;5123538;27;20494;-68
2023/11/12 06:12:13;;;;;;;26.67;14.57;;;;;;;;;;5120180;27;20447;-68
2023/11/12 06:14:39;;;;;;;26.20;14.80;;;;;;;;;;5116133;27;20469;-68
2023/11/12 06:17:05;;;;;;;20.80;13.73;;;;;;;;;;5109195;27;20492;-69
2023/11/12 06:19:32;;;;;;;19.70;12.90;;;;;;;;;;5106307;28;20486;-68
2023/11/12 06:22:00;;;;;;;25.27;14.40;;;;;;;;;;5121410;27;20489;-70
2023/11/12 06:24:27;;;;;;;26.53;16.03;;;;;;;;;;5120414;27;20445;-70
2023/11/12 06:26:54;;;;;;;22.53;14.53;;;;;;;;;;5107002;27;20497;-69
2023/11/12 06:29:20;;;;;;;21.30;14.83;;;;;;;;;;5116481;27;20494;-69
2023/11/12 06:31:47;;;;;;;23.50;15.23;;;;;;;;;;5118922;28;20513;-69
2023/11/12 06:34:13;;;;;;;24.83;15.27;;;;;;;;;;5116359;27;21016;-69
2023/11/12 06:36:40;;;;;;;21.43;14.33;;;;;;;;;;5108614;28;20450;-69
2023/11/12 06:39:06;;;;;;;18.50;13.10;;;;;;;;;;5116859;27;20510;-68
2023/11/12 06:41:34;;;;;;;23.43;13.40;;;;;;;;;;5118578;27;20488;-68
2023/11/12 06:44:00;;;;;;;21.17;14.80;;;;;;;;;;5124855;27;20450;-68
2023/11/12 06:46:27;;;;;;;24.57;13.47;;;;;;;;;;5115926;28;20540;-68
2023/11/12 06:48:53;;;;;;;18.93;11.80;;;;;;;;;;5113298;28;20461;-69
2023/11/12 06:51:22;;;;;;;17.57;12.47;;;;;;;;;;5116285;27;20510;-69
2023/11/12 06:53:49;;;;;;;18.30;12.87;;;;;;;;;;5111320;27;20490;-69
2023/11/12 06:56:15;;;;;;;19.33;13.30;;;;;;;;;;5121868;27;20475;-68
2023/11/12 06:58:43;;;;;;;18.50;11.87;;;;;;;;;;5118964;28;20544;-70
2023/11/12 07:01:09;;;;;;;20.23;13.07;;;;;;;;;;5114918;28;20473;-69
2023/11/12 07:03:36;;;;;;;20.00;12.00;;;;;;;;;;5109331;28;20507;-69
2023/11/12 07:06:03;;;;;;;19.90;12.43;;;;;;;;;;5115176;27;20453;-69
2023/11/12 07:08:30;;;;;;;21.47;13.60;;;;;;;;;;5120063;27;20870;-71
2023/11/12 07:10:58;;;;;;;21.40;13.10;;;;;;;;;;5106660;27;20461;-70
2023/11/12 07:13:24;;;;;;;16.10;11.37;;;;;;;;;;5118456;27;20462;-70
2023/11/12 07:15:52;;;;;;;23.70;13.87;;;;;;;;;;5119545;28;20501;-70
2023/11/12 07:18:18;;;;;;;19.83;12.80;;;;;;;;;;5122311;27;20505;-69
2023/11/12 07:20:45;;;;;;;22.60;12.90;;;;;;;;;;5127346;27;20474;-70
2023/11/12 07:23:11;;;;;;;17.00;12.57;;;;;;;;;;5109944;28;20825;-69
2023/11/12 07:25:38;;;;;;;20.90;14.37;;;;;;;;;;5111745;27;20527;-69
2023/11/12 07:28:04;;;;;;;22.10;13.37;;;;;;;;;;5124764;27;20497;-69
2023/11/12 07:30:31;;;;;;;18.27;13.00;;;;;;;;;;5108948;28;20553;-69
2023/11/12 07:32:59;;;;;;;17.13;12.30;;;;;;;;;;5107298;28;20470;-69
2023/11/12 07:35:26;;;;;;;18.30;12.83;;;;;;;;;;5111780;28;20450;-70
2023/11/12 07:37:52;;;;;;;16.63;12.20;;;;;;;;;;5108960;28;20486;-71
2023/11/12 07:40:18;;;;;;;17.23;11.70;;;;;;;;;;5123747;27;20477;-69
2023/11/12 07:42:45;;;;;;;18.47;12.20;;;;;;;;;;5105613;27;20453;-69
2023/11/12 07:45:13;;;;;;;22.07;14.03;;;;;;;;;;5110589;27;20474;-68
2023/11/12 07:47:40;;;;;;;19.27;13.03;;;;;;;;;;5109716;27;20474;-68
2023/11/12 07:50:08;;;;;;;19.50;13.10;;;;;;;;;;5118429;27;20444;-69
2023/11/12 07:52:36;;;;;;;18.27;13.10;;;;;;;;;;5110107;27;20510;-68
2023/11/12 07:55:02;;;;;;;18.40;12.60;;;;;;;;;;5111905;27;20814;-69
2023/11/12 07:57:29;;;;;;;15.57;11.73;;;;;;;;;;5116488;27;20460;-69
2023/11/12 07:59:55;;;;;;;16.57;11.47;;;;;;;;;;5105866;27;20458;-68
2023/11/12 08:02:22;;;;;;;16.77;13.60;;;;;;;;;;5116728;27;20486;-68
2023/11/12 08:04:49;;;;;;;20.03;14.00;;;;;;;;;;5112831;27;20530;-69
2023/11/12 08:07:17;;;;;;;18.37;12.50;;;;;;;;;;5122539;27;20450;-68
2023/11/12 08:09:44;;;;;;;13.97;12.03;;;;;;;;;;5113526;27;20441;-68
2023/11/12 08:12:11;;;;;;;17.63;13.17;;;;;;;;;;5114054;27;20491;-70
2023/11/12 08:14:37;;;;;;;14.83;12.33;;;;;;;;;;5116800;27;20446;-69
2023/11/12 08:17:04;;;;;;;15.73;13.67;;;;;;;;;;5119402;27;20462;-70
2023/11/12 08:19:30;;;;;;;12.73;10.53;;;;;;;;;;5113352;28;20482;-69
2023/11/12 08:21:57;;;;;;;16.17;14.47;;;;;;;;;;5111828;27;20450;-69
2023/11/12 08:24:26;;;;;;;18.73;12.60;;;;;;;;;;5111111;27;20477;-69
2023/11/12 08:26:53;;;;;;;15.03;12.60;;;;;;;;;;5123229;27;20517;-68
2023/11/12 08:29:19;;;;;;;18.33;11.80;;;;;;;;;;5122895;27;20445;-68
2023/11/12 08:31:46;;;;;;;14.80;11.70;;;;;;;;;;5118658;27;20572;-68
2023/11/12 08:34:12;;;;;;;13.47;11.63;;;;;;;;;;5114068;28;20458;-69
2023/11/12 08:36:39;;;;;;;14.93;12.13;;;;;;;;;;5110431;27;20532;-69
2023/11/12 08:39:05;;;;;;;18.00;12.43;;;;;;;;;;5116845;28;20482;-69
2023/11/12 08:41:33;;;;;;;13.97;11.40;;;;;;;;;;5118121;27;20469;-77
2023/11/12 08:44:00;;;;;;;14.70;12.00;;;;;;;;;;5121773;27;20804;-80
2023/11/12 08:46:26;;;;;;;17.73;12.67;;;;;;;;;;5119415;27;20492;-80
2023/11/12 08:48:53;;;;;;;14.50;11.47;;;;;;;;;;5115789;27;20478;-75
2023/11/12 08:51:19;;;;;;;15.20;11.77;;;;;;;;;;5118704;27;21269;-79
2023/11/12 08:53:46;;;;;;;15.23;12.37;;;;;;;;;;5115375;27;20966;-78
2023/11/12 08:56:12;;;;;;;14.07;11.73;;;;;;;;;;5115677;28;20465;-78
2023/11/12 08:58:40;;;;;;;11.87;10.67;;;;;;;;;;5112202;27;20486;-78
2023/11/12 09:01:08;;;;;;;15.43;11.37;;;;;;;;;;5117415;27;20454;-76
2023/11/12 09:03:35;;;;;;;15.53;10.93;;;;;;;;;;5114620;27;20462;-81
2023/11/12 09:06:01;;;;;;;19.40;10.77;;;;;;;;;;5115420;28;20458;-78
2023/11/12 09:08:28;;;;;;;11.47;9.63;;;;;;;;;;5116229;27;20474;-77
2023/11/12 09:10:54;;;;;;;15.27;10.63;;;;;;;;;;5113422;28;20458;-76
2023/11/12 09:13:21;;;;;;;13.10;9.70;;;;;;;;;;5114996;28;20453;-75
2023/11/12 09:15:49;;;;;;;10.47;8.83;;;;;;;;;;5114134;27;20455;-78
2023/11/12 09:18:16;;;;;;;13.63;10.13;;;;;;;;;;5115058;27;20977;-77
2023/11/12 09:20:43;;;;;;;11.30;9.37;;;;;;;;;;5115611;28;21229;-78
2023/11/12 09:23:09;;;;;;;13.07;9.70;;;;;;;;;;5109647;28;20889;-80
2023/11/12 09:25:36;;;;;;;12.33;9.70;;;;;;;;;;5109488;27;20475;-71
2023/11/12 09:28:03;;;;;;;17.70;10.47;;;;;;;;;;5106039;28;20883;-67
2023/11/12 09:30:31;;;;;;;12.93;10.13;;;;;;;;;;5108870;28;21099;-66
2023/11/12 09:32:59;;;;;;;12.97;10.40;;;;;;;;;;5104120;28;20545;-69
2023/11/12 09:35:25;;;;;;;12.23;10.70;;;;;;;;;;5109585;27;20483;-68
2023/11/12 09:37:52;;;;;;;12.27;10.47;;;;;;;;;;5113162;27;20463;-69
2023/11/12 09:40:18;;;;;;;14.60;9.90;;;;;;;;;;5110843;28;20478;-69
2023/11/12 09:42:48;;;;;;;12.73;10.33;;;;;;;;;;5115389;27;20946;-65
2023/11/12 09:45:15;;;;;;;14.33;10.70;;;;;;;;;;5112752;28;20670;-66
2023/11/12 09:47:44;;;;;;;10.97;9.77;;;;;;;;;;5113303;27;20455;-66
2023/11/12 09:50:13;;;;;;;11.13;9.73;;;;;;;;;;5117007;27;20453;-68
2023/11/12 09:52:39;;;;;;;12.73;10.10;;;;;;;;;;5104225;28;20531;-65
2023/11/12 09:55:07;;;;;;;15.53;9.40;;;;;;;;;;5114135;28;20450;-63
2023/11/12 09:57:33;;;;;;;11.90;10.40;;;;;;;;;;5115209;28;20438;-69
2023/11/12 09:59:59;;;;;;;14.43;11.07;;;;;;;;;;5111597;28;20564;-66
2023/11/12 10:02:27;;;;;;;14.80;9.93;;;;;;;;;;5106910;27;20486;-70
2023/11/12 10:04:57;;;;;;;12.03;10.60;;;;;;;;;;5112851;28;20443;-66
2023/11/12 10:07:25;;;;;;;11.73;9.73;;;;;;;;;;5109887;27;20832;-66
2023/11/12 10:09:54;;;;;;;12.63;9.80;;;;;;;;;;5108742;27;20505;-66
2023/11/12 10:12:20;;;;;;;14.43;9.67;;;;;;;;;;5108045;28;20454;-66
2023/11/12 10:14:47;;;;;;;16.43;10.73;;;;;;;;;;5107157;28;20447;-67
2023/11/12 10:17:14;;;;;;;12.10;10.13;;;;;;;;;;5112827;28;20461;-66
2023/11/12 10:19:54;;;;;;;12.57;10.27;;;;;;;;;;5109923;28;20483;-66
2023/11/12 10:22:21;;;;;;;12.77;10.80;;;;;;;;;;5115747;27;20521;-66
2023/11/12 10:24:49;;;;;;;11.40;9.57;;;;;;;;;;5114651;28;20481;-67
2023/11/12 10:27:15;;;;;;;13.90;11.20;;;;;;;;;;5114346;27;20459;-66
2023/11/12 10:29:43;;;;;;;12.20;9.50;;;;;;;;;;5115796;28;20974;-66
2023/11/12 10:32:23;;;;;;;14.50;10.70;;;;;;;;;;5115429;27;20482;-67
2023/11/12 10:34:50;;;;;;;13.07;11.20;;;;;;;;;;5114912;28;20446;-66
2023/11/12 10:37:19;;;;;;;12.50;10.83;;;;;;;;;;5111617;28;20467;-66
2023/11/12 10:39:46;;;;;;;13.93;11.20;;;;;;;;;;5113859;28;20485;-66
2023/11/12 10:42:21;;;;;;;11.40;10.30;;;;;;;;;;5115017;28;21258;-66
2023/11/12 10:44:48;;;;;;;10.70;9.67;;;;;;;;;;5101471;28;20438;-65
2023/11/12 10:47:17;;;;;;;12.20;10.33;;;;;;;;;;5100365;28;20813;-66
2023/11/12 10:49:45;;;;;;;12.50;10.30;;;;;;;;;;5102301;28;20546;-66
2023/11/12 10:52:12;;;;;;;11.77;10.67;;;;;;;;;;5114496;28;20465;-66
2023/11/12 10:54:39;;;;;;;14.87;11.07;;;;;;;;;;5111838;28;20993;-66
2023/11/12 10:57:06;;;;;;;11.00;9.80;;;;;;;;;;5106026;28;20501;-66
2023/11/12 10:59:34;;;;;;;13.00;11.07;;;;;;;;;;5103944;28;20512;-66
2023/11/12 11:02:01;;;;;;;16.83;9.03;;;;;;;;;;5117604;28;20442;-67
2023/11/12 11:04:28;;;;;;;10.37;9.33;;;;;;;;;;5105618;28;21040;-67
2023/11/12 11:06:54;;;;;;;9.73;8.80;;;;;;;;;;5108177;28;20450;-66
2023/11/12 11:09:22;;;;;;;9.57;8.60;;;;;;;;;;5103708;28;20504;-76
2023/11/12 11:11:49;;;;;;;10.33;8.33;;;;;;;;;;5111746;28;20457;-74
2023/11/12 11:14:20;;;;;;;8.30;7.60;;;;;;;;;;5100243;28;20450;-78
2023/11/12 11:16:48;;;;;;;10.47;9.53;;;;;;;;;;5110763;28;21009;-78
2023/11/12 11:19:15;;;;;;;7.73;6.93;;;;;;;;;;5108007;28;20510;-80
2023/11/12 11:21:42;;;;;;;7.37;6.50;;;;;;;;;;5111018;28;20442;-80
2023/11/12 11:24:09;;;;;;;9.63;6.73;;;;;;;;;;5115960;28;20549;-80
2023/11/12 11:26:38;;;;;;;7.70;6.10;;;;;;;;;;5109876;28;20505;-73
2023/11/12 11:29:17;;;;;;;10.77;8.50;;;;;;;;;;5106596;27;20979;-76
2023/11/12 11:32:17;;;;;;;7.00;6.30;;;;;;;;;;5123248;27;20577;-76
2023/11/12 11:34:48;;;;;;;12.43;6.10;;;;;;;;;;5112721;28;20443;-70
2023/11/12 11:37:14;;;;;;;9.87;6.80;;;;;;;;;;5113196;27;20450;-69
2023/11/12 11:39:41;;;;;;;6.40;5.90;;;;;;;;;;5113701;27;20516;-68
2023/11/12 11:42:17;;;;;;;6.60;5.97;;;;;;;;;;5114409;28;20457;-70
2023/11/12 11:44:44;;;;;;;6.30;5.80;;;;;;;;;;5103331;28;20545;-69
2023/11/12 11:47:13;;;;;;;6.17;5.67;;;;;;;;;;5113037;27;20453;-70
2023/11/12 11:49:40;;;;;;;6.40;5.80;;;;;;;;;;5110086;28;20537;-70
2023/11/12 11:52:08;;;;;;;8.13;6.43;;;;;;;;;;5113833;28;20509;-69
2023/11/12 11:54:34;;;;;;;6.03;4.90;;;;;;;;;;5123061;27;20444;-69
2023/11/12 11:57:02;;;;;;;5.10;4.63;;;;;;;;;;5111500;27;20466;-69
2023/11/12 11:59:30;;;;;;;5.77;5.20;;;;;;;;;;5127277;27;20485;-70
2023/11/12 12:01:59;;;;;;;5.23;4.83;;;;;;;;;;5120475;27;20454;-69
2023/11/12 12:04:25;;;;;;;6.00;5.40;;;;;;;;;;5119271;27;20460;-69
2023/11/12 12:06:52;;;;;;;9.13;6.40;;;;;;;;;;5114209;28;20450;-68
2023/11/12 12:09:20;;;;;;;6.50;5.50;;;;;;;;;;5116062;27;20458;-69
2023/11/12 12:11:47;;;;;;;6.97;6.27;;;;;;;;;;5111532;28;20472;-68
2023/11/12 12:14:14;;;;;;;6.63;5.93;;;;;;;;;;5114776;28;20443;-69
2023/11/12 12:16:42;;;;;;;6.20;5.70;;;;;;;;;;5108234;27;20531;-70
2023/11/12 12:19:09;;;;;;;5.90;5.40;;;;;;;;;;5115990;27;21077;-69
2023/11/12 12:21:36;;;;;;;6.47;5.90;;;;;;;;;;5109535;27;20467;-69
2023/11/12 12:24:03;;;;;;;8.10;7.40;;;;;;;;;;5114130;27;20499;-68
2023/11/12 12:26:31;;;;;;;7.07;6.37;;;;;;;;;;5121831;27;20441;-74
2023/11/12 12:28:58;;;;;;;6.03;5.33;;;;;;;;;;5116226;27;20454;-72
2023/11/12 12:31:27;;;;;;;6.67;5.80;;;;;;;;;;5125937;27;20554;-73
2023/11/12 12:34:00;;;;;;;8.03;6.57;;;;;;;;;;5117480;27;20452;-74
2023/11/12 12:36:27;;;;;;;7.40;5.87;;;;;;;;;;5122050;27;20454;-76
2023/11/12 12:38:57;;;;;;;5.97;5.43;;;;;;;;;;5122376;27;20455;-74
2023/11/12 12:41:24;;;;;;;5.53;5.13;;;;;;;;;;5115009;27;20461;-75
2023/11/12 12:43:54;;;;;;;5.33;4.83;;;;;;;;;;5108476;28;20442;-66
2023/11/12 12:46:21;;;;;;;5.70;5.20;;;;;;;;;;5105704;28;20469;-66
2023/11/12 12:48:51;;;;;;;8.10;5.27;;;;;;;;;;5109495;27;20458;-69
2023/11/12 12:51:17;;;;;;;6.10;5.60;;;;;;;;;;5117860;28;20470;-72
2023/11/12 12:53:45;;;;;;;6.27;5.10;;;;;;;;;;5114326;27;20474;-66
2023/11/12 12:56:13;;;;;;;4.90;4.50;;;;;;;;;;5129847;27;20494;-66
2023/11/12 12:58:40;;;;;;;5.13;4.73;;;;;;;;;;5119419;27;20459;-67
2023/11/12 13:01:10;;;;;;;4.93;4.47;;;;;;;;;;5119557;27;20557;-70
2023/11/12 13:03:39;;;;;;;7.03;6.43;;;;;;;;;;5127411;27;20544;-66
2023/11/12 13:06:08;;;;;;;4.43;4.00;;;;;;;;;;5102206;27;20522;-66
2023/11/12 13:08:34;;;;;;;4.83;4.43;;;;;;;;;;5116765;27;20476;-67
2023/11/12 13:11:01;;;;;;;4.70;4.23;;;;;;;;;;5120447;27;20450;-66
2023/11/12 13:13:29;;;;;;;4.77;4.37;;;;;;;;;;5111413;27;20455;-66
2023/11/12 13:15:55;;;;;;;5.07;4.57;;;;;;;;;;5114106;27;20470;-66
2023/11/12 13:18:24;;;;;;;4.90;4.50;;;;;;;;;;5112328;28;20450;-67
2023/11/12 13:20:51;;;;;;;5.57;4.23;;;;;;;;;;5118319;27;20469;-68
2023/11/12 13:23:19;;;;;;;4.13;3.83;;;;;;;;;;5112982;28;20458;-69
2023/11/12 13:25:46;;;;;;;5.30;4.80;;;;;;;;;;5114930;27;20445;-68
2023/11/12 13:28:16;;;;;;;5.23;4.43;;;;;;;;;;5114472;28;20454;-67
2023/11/12 13:30:42;;;;;;;3.90;3.53;;;;;;;;;;5096872;28;20467;-70
2023/11/12 13:33:09;;;;;;;5.47;3.97;;;;;;;;;;5112588;27;20453;-66
2023/11/12 13:35:38;;;;;;;4.70;4.20;;;;;;;;;;5112959;27;20461;-67
2023/11/12 13:38:04;;;;;;;6.00;4.00;;;;;;;;;;5110044;28;20447;-67
2023/11/12 13:40:33;;;;;;;5.07;4.20;;;;;;;;;;5101561;27;20471;-67
2023/11/12 13:43:00;;;;;;;6.27;4.57;;;;;;;;;;5116106;27;20534;-70
2023/11/12 13:45:27;;;;;;;5.03;4.53;;;;;;;;;;5104565;28;20463;-67
2023/11/12 13:47:54;;;;;;;5.07;4.73;;;;;;;;;;5103739;28;20466;-67
2023/11/12 13:50:24;;;;;;;5.63;3.90;;;;;;;;;;5106445;28;20546;-67
2023/11/12 13:52:58;;;;;;;5.23;4.83;;;;;;;;;;5102048;27;20459;-69
2023/11/12 13:55:27;;;;;;;4.80;4.50;;;;;;;;;;5118642;27;20447;-68
2023/11/12 13:57:55;;;;;;;5.00;4.60;;;;;;;;;;5109924;27;20463;-66
2023/11/12 14:00:27;;;;;;;5.47;3.73;;;;;;;;;;5120857;27;20470;-72
2023/11/12 14:02:54;;;;;;;4.30;4.00;;;;;;;;;;5110060;28;20518;-62
2023/11/12 14:05:26;;;;;;;4.30;3.73;;;;;;;;;;5113462;27;20505;-70
2023/11/12 14:07:54;;;;;;;5.27;3.80;;;;;;;;;;5124819;27;20454;-69
2023/11/12 14:10:21;;;;;;;3.90;3.60;;;;;;;;;;5109351;27;20459;-69
2023/11/12 14:12:50;;;;;;;4.33;3.93;;;;;;;;;;5106699;28;20457;-66
2023/11/12 14:15:17;;;;;;;7.83;4.47;;;;;;;;;;5109187;28;20445;-65
2023/11/12 14:17:44;;;;;;;4.50;4.20;;;;;;;;;;5114085;27;20602;-65
2023/11/12 14:20:11;;;;;;;3.93;3.73;;;;;;;;;;5109097;28;20565;-65
2023/11/12 14:22:40;;;;;;;4.70;4.40;;;;;;;;;;5114256;27;20480;-65
2023/11/12 14:25:10;;;;;;;4.93;4.20;;;;;;;;;;5113135;27;20450;-64